sensor_id;sensor_type;location;lat;lon;timestamp;pressure;altitude;pressure_sealevel;temperature;humidity
43153;BME280;28756;49.064;9.290;2022-12-07T00:01:45;99221.47;;;1.06;100.00
43153;BME280;28756;49.064;9.290;2022-12-07T00:04:22;99221.50;;;1.03;100.00
43153;BME280;28756;49.064;9.290;2022-12-07T00:06:51;99232.66;;;0.99;100.00
43153;BME280;28756;49.064;9.290;2022-12-07T00:09:18;99230.13;;;0.98;100.00
43153;BME280;28756;49.064;9.290;2022-12-07T00:11:49;99224.16;;;0.99;100.00
43153;BME280;28756;49.064;9.290;2022-12-07T00:14:19;99222.44;;;0.96;100.00
43153;BME280;28756;49.064;9.290;2022-12-07T00:16:50;99229.34;;;0.91;100.00
43153;BME280;28756;49.064;9.290;2022-12-07T00:19:16;99222.56;;;0.88;100.00
43153;BME280;28756;49.064;9.290;2022-12-07T00:21:43;99220.03;;;0.87;100.00
43153;BME280;28756;49.064;9.290;2022-12-07T00:24:18;99224.31;;;0.83;100.00
43153;BME280;28756;49.064;9.290;2022-12-07T00:26:44;99227.78;;;0.81;100.00
43153;BME280;28756;49.064;9.290;2022-12-07T00:29:26;99220.09;;;0.81;100.00
43153;BME280;28756;49.064;9.290;2022-12-07T00:31:54;99221.84;;;0.78;100.00
43153;BME280;28756;49.064;9.290;2022-12-07T00:34:21;99219.28;;;0.77;100.00
43153;BME280;28756;49.064;9.290;2022-12-07T00:36:49;99222.72;;;0.74;100.00
43153;BME280;28756;49.064;9.290;2022-12-07T00:39:16;99221.91;;;0.74;100.00
43153;BME280;28756;49.064;9.290;2022-12-07T00:41:45;99219.38;;;0.71;100.00
43153;BME280;28756;49.064;9.290;2022-12-07T00:44:18;99215.13;;;0.68;100.00
43153;BME280;28756;49.064;9.290;2022-12-07T00:46:47;99214.28;;;0.68;100.00
43153;BME280;28756;49.064;9.290;2022-12-07T00:49:18;99213.47;;;0.66;100.00
43153;BME280;28756;49.064;9.290;2022-12-07T00:51:48;99220.28;;;0.67;100.00
43153;BME280;28756;49.064;9.290;2022-12-07T00:54:15;99218.59;;;0.66;100.00
43153;BME280;28756;49.064;9.290;2022-12-07T00:56:41;99216.84;;;0.68;100.00
43153;BME280;28756;49.064;9.290;2022-12-07T00:59:12;99219.38;;;0.68;100.00
43153;BME280;28756;49.064;9.290;2022-12-07T01:01:40;99219.34;;;0.72;100.00
43153;BME280;28756;49.064;9.290;2022-12-07T01:04:08;99219.31;;;0.75;100.00
43153;BME280;28756;49.064;9.290;2022-12-07T01:06:46;99225.25;;;0.79;100.00
43153;BME280;28756;49.064;9.290;2022-12-07T01:09:38;99216.66;;;0.82;100.00
43153;BME280;28756;49.064;9.290;2022-12-07T01:12:14;99212.41;;;0.82;100.00
43153;BME280;28756;49.064;9.290;2022-12-07T01:14:51;99218.38;;;0.79;100.00
43153;BME280;28756;49.064;9.290;2022-12-07T01:17:23;99219.28;;;0.77;100.00
43153;BME280;28756;49.064;9.290;2022-12-07T01:19:57;99210.81;;;0.75;100.00
43153;BME280;28756;49.064;9.290;2022-12-07T01:22:31;99211.59;;;0.77;100.00
43153;BME280;28756;49.064;9.290;2022-12-07T01:24:57;99217.59;;;0.77;100.00
43153;BME280;28756;49.064;9.290;2022-12-07T01:27:23;99223.50;;;0.81;100.00
43153;BME280;28756;49.064;9.290;2022-12-07T01:29:49;99217.56;;;0.79;100.00
43153;BME280;28756;49.064;9.290;2022-12-07T01:32:16;99224.41;;;0.78;100.00
43153;BME280;28756;49.064;9.290;2022-12-07T01:34:41;99218.41;;;0.78;100.00
43153;BME280;28756;49.064;9.290;2022-12-07T01:37:07;99218.44;;;0.76;100.00
43153;BME280;28756;49.064;9.290;2022-12-07T01:39:39;99223.59;;;0.73;100.00
43153;BME280;28756;49.064;9.290;2022-12-07T01:42:14;99223.63;;;0.72;100.00
43153;BME280;28756;49.064;9.290;2022-12-07T01:47:58;99225.31;;;0.73;100.00
43153;BME280;28756;49.064;9.290;2022-12-07T01:50:29;99225.31;;;0.71;100.00
43153;BME280;28756;49.064;9.290;2022-12-07T01:52:59;99224.50;;;0.69;100.00
43153;BME280;28756;49.064;9.290;2022-12-07T01:55:27;99229.63;;;0.68;100.00
43153;BME280;28756;49.064;9.290;2022-12-07T01:57:56;99221.13;;;0.67;100.00
43153;BME280;28756;49.064;9.290;2022-12-07T02:00:27;99222.84;;;0.65;100.00
43153;BME280;28756;49.064;9.290;2022-12-07T02:03:05;99229.72;;;0.63;100.00
43153;BME280;28756;49.064;9.290;2022-12-07T02:05:45;99228.00;;;0.62;100.00
43153;BME280;28756;49.064;9.290;2022-12-07T02:08:15;99218.59;;;0.62;100.00
43153;BME280;28756;49.064;9.290;2022-12-07T02:10:42;99221.19;;;0.61;100.00
43153;BME280;28756;49.064;9.290;2022-12-07T02:13:40;99224.59;;;0.61;100.00
43153;BME280;28756;49.064;9.290;2022-12-07T02:16:50;99221.13;;;0.64;100.00
43153;BME280;28756;49.064;9.290;2022-12-07T02:25:55;99209.22;;;0.61;100.00
43153;BME280;28756;49.064;9.290;2022-12-07T02:31:36;99210.97;;;0.59;100.00
43153;BME280;28756;49.064;9.290;2022-12-07T02:34:45;99207.59;;;0.56;100.00
43153;BME280;28756;49.064;9.290;2022-12-07T02:37:48;99203.34;;;0.53;100.00
43153;BME280;28756;49.064;9.290;2022-12-07T02:43:26;99191.31;;;0.63;100.00
43153;BME280;28756;49.064;9.290;2022-12-07T02:45:58;99186.94;;;0.70;100.00
43153;BME280;28756;49.064;9.290;2022-12-07T02:48:27;99184.34;;;0.71;100.00
43153;BME280;28756;49.064;9.290;2022-12-07T02:50:58;99179.28;;;0.70;100.00
43153;BME280;28756;49.064;9.290;2022-12-07T02:53:34;99180.16;;;0.67;100.00
43153;BME280;28756;49.064;9.290;2022-12-07T03:09:15;99201.56;;;0.61;100.00
43153;BME280;28756;49.064;9.290;2022-12-07T03:12:00;99199.00;;;0.63;100.00
43153;BME280;28756;49.064;9.290;2022-12-07T03:14:38;99202.38;;;0.67;100.00
43153;BME280;28756;49.064;9.290;2022-12-07T03:17:27;99195.44;;;0.73;100.00
43153;BME280;28756;49.064;9.290;2022-12-07T03:19:58;99182.63;;;0.73;100.00
43153;BME280;28756;49.064;9.290;2022-12-07T03:22:30;99186.94;;;0.73;100.00
43153;BME280;28756;49.064;9.290;2022-12-07T03:25:11;99166.44;;;0.73;100.00
43153;BME280;28756;49.064;9.290;2022-12-07T03:28:07;99161.31;;;0.73;100.00
43153;BME280;28756;49.064;9.290;2022-12-07T03:30:57;99162.19;;;0.72;100.00
43153;BME280;28756;49.064;9.290;2022-12-07T03:36:40;99162.22;;;0.70;100.00
43153;BME280;28756;49.064;9.290;2022-12-07T03:39:45;99153.66;;;0.71;100.00
43153;BME280;28756;49.064;9.290;2022-12-07T03:42:12;99143.47;;;0.68;100.00
43153;BME280;28756;49.064;9.290;2022-12-07T03:44:38;99143.47;;;0.68;100.00
43153;BME280;28756;49.064;9.290;2022-12-07T03:47:33;99142.59;;;0.69;100.00
43153;BME280;28756;49.064;9.290;2022-12-07T03:52:42;99145.97;;;0.71;100.00
43153;BME280;28756;49.064;9.290;2022-12-07T03:57:59;99151.13;;;0.70;100.00
43153;BME280;28756;49.064;9.290;2022-12-07T04:00:49;99165.59;;;0.71;100.00
43153;BME280;28756;49.064;9.290;2022-12-07T04:03:37;99168.16;;;0.71;100.00
43153;BME280;28756;49.064;9.290;2022-12-07T04:06:20;99165.59;;;0.71;100.00
43153;BME280;28756;49.064;9.290;2022-12-07T04:08:58;99151.94;;;0.72;100.00
43153;BME280;28756;49.064;9.290;2022-12-07T04:11:26;99144.28;;;0.72;100.00
43153;BME280;28756;49.064;9.290;2022-12-07T04:13:51;99147.69;;;0.71;100.00
43153;BME280;28756;49.064;9.290;2022-12-07T04:16:35;99162.22;;;0.70;100.00
43153;BME280;28756;49.064;9.290;2022-12-07T04:19:01;99167.38;;;0.67;100.00
43153;BME280;28756;49.064;9.290;2022-12-07T04:21:27;99169.97;;;0.62;100.00
43153;BME280;28756;49.064;9.290;2022-12-07T04:23:53;99153.00;;;0.58;100.00
43153;BME280;28756;49.064;9.290;2022-12-07T04:26:18;99168.34;;;0.58;100.00
43153;BME280;28756;49.064;9.290;2022-12-07T04:28:54;99170.94;;;0.55;100.00
43153;BME280;28756;49.064;9.290;2022-12-07T04:31:20;99169.22;;;0.54;100.00
43153;BME280;28756;49.064;9.290;2022-12-07T04:34:04;99163.31;;;0.47;100.00
43153;BME280;28756;49.064;9.290;2022-12-07T04:36:34;99158.22;;;0.47;100.00
43153;BME280;28756;49.064;9.290;2022-12-07T04:39:07;99161.66;;;0.46;100.00
43153;BME280;28756;49.064;9.290;2022-12-07T04:41:39;99171.91;;;0.45;100.00
43153;BME280;28756;49.064;9.290;2022-12-07T04:44:05;99163.44;;;0.40;100.00
43153;BME280;28756;49.064;9.290;2022-12-07T04:46:33;99158.28;;;0.44;100.00
43153;BME280;28756;49.064;9.290;2022-12-07T04:48:59;99161.66;;;0.45;100.00
43153;BME280;28756;49.064;9.290;2022-12-07T04:51:27;99159.16;;;0.42;100.00
43153;BME280;28756;49.064;9.290;2022-12-07T04:54:02;99162.59;;;0.38;100.00
43153;BME280;28756;49.064;9.290;2022-12-07T04:56:31;99155.75;;;0.40;100.00
43153;BME280;28756;49.064;9.290;2022-12-07T04:58:57;99150.66;;;0.37;100.00
43153;BME280;28756;49.064;9.290;2022-12-07T05:01:23;99155.84;;;0.34;100.00
43153;BME280;28756;49.064;9.290;2022-12-07T05:03:49;99154.97;;;0.33;100.00
43153;BME280;28756;49.064;9.290;2022-12-07T05:06:15;99154.94;;;0.38;100.00
43153;BME280;28756;49.064;9.290;2022-12-07T05:08:45;99155.78;;;0.38;100.00
43153;BME280;28756;49.064;9.290;2022-12-07T05:11:19;99146.34;;;0.43;100.00
43153;BME280;28756;49.064;9.290;2022-12-07T05:14:18;99152.88;;;0.66;100.00
43153;BME280;28756;49.064;9.290;2022-12-07T05:16:47;99160.56;;;0.65;100.00
43153;BME280;28756;49.064;9.290;2022-12-07T05:19:14;99168.28;;;0.63;100.00
43153;BME280;28756;49.064;9.290;2022-12-07T05:21:40;99161.44;;;0.63;100.00
43153;BME280;28756;49.064;9.290;2022-12-07T05:24:07;99162.22;;;0.70;100.00
43153;BME280;28756;49.064;9.290;2022-12-07T05:26:33;99163.09;;;0.66;100.00
43153;BME280;28756;49.064;9.290;2022-12-07T05:28:59;99149.50;;;0.62;100.00
43153;BME280;28756;49.064;9.290;2022-12-07T05:31:26;99155.50;;;0.61;100.00
43153;BME280;28756;49.064;9.290;2022-12-07T05:33:55;99154.59;;;0.64;100.00
43153;BME280;28756;49.064;9.290;2022-12-07T05:36:22;99152.03;;;0.66;100.00
43153;BME280;28756;49.064;9.290;2022-12-07T05:38:48;99154.59;;;0.66;100.00
43153;BME280;28756;49.064;9.290;2022-12-07T05:41:18;99155.47;;;0.65;100.00
43153;BME280;28756;49.064;9.290;2022-12-07T05:44:04;99157.22;;;0.61;100.00
43153;BME280;28756;49.064;9.290;2022-12-07T05:46:29;99151.16;;;0.65;100.00
43153;BME280;28756;49.064;9.290;2022-12-07T05:48:55;99146.03;;;0.68;100.00
43153;BME280;28756;49.064;9.290;2022-12-07T05:51:21;99143.47;;;0.68;100.00
43153;BME280;28756;49.064;9.290;2022-12-07T05:53:47;99142.53;;;0.72;100.00
43153;BME280;28756;49.064;9.290;2022-12-07T05:56:14;99130.59;;;0.71;100.00
43153;BME280;28756;49.064;9.290;2022-12-07T05:58:40;99140.03;;;0.69;100.00
43153;BME280;28756;49.064;9.290;2022-12-07T06:01:24;99138.31;;;0.70;100.00
43153;BME280;28756;49.064;9.290;2022-12-07T06:03:50;99144.31;;;0.70;100.00
43153;BME280;28756;49.064;9.290;2022-12-07T06:06:16;99144.28;;;0.72;100.00
43153;BME280;28756;49.064;9.290;2022-12-07T06:08:41;99144.28;;;0.72;100.00
43153;BME280;28756;49.064;9.290;2022-12-07T06:11:07;99154.53;;;0.70;100.00
43153;BME280;28756;49.064;9.290;2022-12-07T06:13:52;99157.09;;;0.69;100.00
43153;BME280;28756;49.064;9.290;2022-12-07T06:16:18;99152.03;;;0.66;100.00
43153;BME280;28756;49.064;9.290;2022-12-07T06:18:44;99152.03;;;0.64;100.00
43153;BME280;28756;49.064;9.290;2022-12-07T06:21:09;99143.56;;;0.60;100.00
43153;BME280;28756;49.064;9.290;2022-12-07T06:23:35;99158.94;;;0.59;100.00
43153;BME280;28756;49.064;9.290;2022-12-07T06:26:01;99157.25;;;0.58;100.00
43153;BME280;28756;49.064;9.290;2022-12-07T06:28:27;99157.28;;;0.56;100.00
43153;BME280;28756;49.064;9.290;2022-12-07T06:31:00;99159.81;;;0.56;100.00
43153;BME280;28756;49.064;9.290;2022-12-07T06:33:27;99150.44;;;0.58;100.00
43153;BME280;28756;49.064;9.290;2022-12-07T06:35:53;99147.03;;;0.56;100.00
43153;BME280;28756;49.064;9.290;2022-12-07T06:38:19;99151.31;;;0.54;100.00
43153;BME280;28756;49.064;9.290;2022-12-07T06:40:44;99153.03;;;0.52;100.00
43153;BME280;28756;49.064;9.290;2022-12-07T06:43:10;99160.72;;;0.52;100.00
43153;BME280;28756;49.064;9.290;2022-12-07T06:45:36;99159.88;;;0.52;100.00
43153;BME280;28756;49.064;9.290;2022-12-07T06:48:02;99155.59;;;0.54;100.00
43153;BME280;28756;49.064;9.290;2022-12-07T06:50:28;99159.03;;;0.53;100.00
43153;BME280;28756;49.064;9.290;2022-12-07T06:52:53;99160.72;;;0.52;100.00
43153;BME280;28756;49.064;9.290;2022-12-07T06:55:27;99154.75;;;0.52;100.00
43153;BME280;28756;49.064;9.290;2022-12-07T06:58:00;99155.59;;;0.52;100.00
43153;BME280;28756;49.064;9.290;2022-12-07T07:00:39;99158.16;;;0.54;100.00
43153;BME280;28756;49.064;9.290;2022-12-07T07:03:14;99156.47;;;0.53;100.00
43153;BME280;28756;49.064;9.290;2022-12-07T07:05:39;99156.44;;;0.54;100.00
43153;BME280;28756;49.064;9.290;2022-12-07T07:08:06;99159.00;;;0.54;100.00
43153;BME280;28756;49.064;9.290;2022-12-07T07:10:40;99159.84;;;0.53;100.00
43153;BME280;28756;49.064;9.290;2022-12-07T07:13:13;99172.66;;;0.55;100.00
43153;BME280;28756;49.064;9.290;2022-12-07T07:15:53;99175.16;;;0.58;100.00
43153;BME280;28756;49.064;9.290;2022-12-07T07:18:28;99170.91;;;0.57;100.00
43153;BME280;28756;49.064;9.290;2022-12-07T07:21:12;99175.19;;;0.56;100.00
43153;BME280;28756;49.064;9.290;2022-12-07T07:23:41;99177.75;;;0.56;100.00
43153;BME280;28756;49.064;9.290;2022-12-07T07:26:18;99170.91;;;0.57;100.00
43153;BME280;28756;49.064;9.290;2022-12-07T07:28:52;99178.56;;;0.58;100.00
43153;BME280;28756;49.064;9.290;2022-12-07T07:31:49;99179.41;;;0.59;100.00
43153;BME280;28756;49.064;9.290;2022-12-07T07:34:33;99181.94;;;0.62;100.00
43153;BME280;28756;49.064;9.290;2022-12-07T07:40:16;99178.41;;;0.71;100.00
43153;BME280;28756;49.064;9.290;2022-12-07T07:43:17;99183.50;;;0.72;100.00
43153;BME280;28756;49.064;9.290;2022-12-07T07:45:56;99185.22;;;0.72;100.00
43153;BME280;28756;49.064;9.290;2022-12-07T07:48:32;99177.50;;;0.76;100.00
43153;BME280;28756;49.064;9.290;2022-12-07T07:54:23;99169.69;;;0.86;100.00
43153;BME280;28756;49.064;9.290;2022-12-07T07:56:52;99175.63;;;0.88;100.00
43153;BME280;28756;49.064;9.290;2022-12-07T07:59:18;99180.69;;;0.94;100.00
43153;BME280;28756;49.064;9.290;2022-12-07T08:01:44;99182.38;;;0.93;100.00
43153;BME280;28756;49.064;9.290;2022-12-07T08:04:10;99184.91;;;0.95;100.00
43153;BME280;28756;49.064;9.290;2022-12-07T08:06:35;99185.72;;;1.00;100.00
43153;BME280;28756;49.064;9.290;2022-12-07T08:09:04;99192.47;;;1.04;100.00
43153;BME280;28756;49.064;9.290;2022-12-07T08:11:31;99186.47;;;1.05;100.00
43153;BME280;28756;49.064;9.290;2022-12-07T08:14:19;99189.00;;;1.07;100.00
43153;BME280;28756;49.064;9.290;2022-12-07T08:16:51;99188.97;;;1.10;100.00
43153;BME280;28756;49.064;9.290;2022-12-07T08:19:30;99193.22;;;1.11;100.00
43153;BME280;28756;49.064;9.290;2022-12-07T08:21:59;99193.22;;;1.11;100.00
43153;BME280;28756;49.064;9.290;2022-12-07T08:24:39;99187.19;;;1.17;100.00
43153;BME280;28756;49.064;9.290;2022-12-07T08:27:45;99193.09;;;1.20;100.00
43153;BME280;28756;49.064;9.290;2022-12-07T08:30:22;99189.63;;;1.26;100.00
43153;BME280;28756;49.064;9.290;2022-12-07T08:32:49;99194.69;;;1.29;100.00
43153;BME280;28756;49.064;9.290;2022-12-07T08:35:15;99187.81;;;1.31;100.00
43153;BME280;28756;49.064;9.290;2022-12-07T08:37:41;99189.38;;;1.40;100.00
43153;BME280;28756;49.064;9.290;2022-12-07T08:40:09;99196.28;;;1.36;100.00
43153;BME280;28756;49.064;9.290;2022-12-07T08:42:43;99174.81;;;1.45;100.00
43153;BME280;28756;49.064;9.290;2022-12-07T08:45:13;99179.91;;;1.47;100.00
43153;BME280;28756;49.064;9.290;2022-12-07T08:48:09;99167.84;;;1.52;100.00
43153;BME280;28756;49.064;9.290;2022-12-07T08:50:47;99171.91;;;1.64;100.00
43153;BME280;28756;49.064;9.290;2022-12-07T08:53:14;99172.72;;;1.69;100.00
43153;BME280;28756;49.064;9.290;2022-12-07T08:55:46;99160.72;;;1.69;100.00
43153;BME280;28756;49.064;9.290;2022-12-07T08:58:19;99168.28;;;1.77;100.00
43153;BME280;28756;49.064;9.290;2022-12-07T09:01:22;99166.59;;;1.76;100.00
43153;BME280;28756;49.064;9.290;2022-12-07T09:04:26;99167.34;;;1.81;100.00
43153;BME280;28756;49.064;9.290;2022-12-07T09:07:15;99161.28;;;1.87;100.00
43153;BME280;28756;49.064;9.290;2022-12-07T09:13:33;99165.47;;;1.93;100.00
43153;BME280;28756;49.064;9.290;2022-12-07T09:16:20;99166.25;;;1.96;100.00
43153;BME280;28756;49.064;9.290;2022-12-07T09:19:22;99162.81;;;1.97;100.00
43153;BME280;28756;49.064;9.290;2022-12-07T09:22:17;99166.19;;;1.99;100.00
43153;BME280;28756;49.064;9.290;2022-12-07T09:25:05;99159.97;;;2.11;100.00
43153;BME280;28756;49.064;9.290;2022-12-07T09:27:55;99165.09;;;2.13;100.00
43153;BME280;28756;49.064;9.290;2022-12-07T09:30:44;99158.06;;;2.21;100.00
43153;BME280;28756;49.064;9.290;2022-12-07T09:33:30;99158.28;;;2.10;100.00
43153;BME280;28756;49.064;9.290;2022-12-07T09:36:14;99156.63;;;2.09;100.00
43153;BME280;28756;49.064;9.290;2022-12-07T09:43:48;99154.94;;;2.07;100.00
43153;BME280;28756;49.064;9.290;2022-12-07T09:46:33;99157.69;;;1.97;100.00
43153;BME280;28756;49.064;9.290;2022-12-07T09:49:48;99152.53;;;1.99;100.00
43153;BME280;28756;49.064;9.290;2022-12-07T09:52:37;99152.59;;;1.94;100.00
43153;BME280;28756;49.064;9.290;2022-12-07T09:55:33;99157.69;;;1.96;100.00
43153;BME280;28756;49.064;9.290;2022-12-07T09:58:05;99150.88;;;1.95;100.00
43153;BME280;28756;49.064;9.290;2022-12-07T10:00:36;99152.59;;;1.94;100.00
43153;BME280;28756;49.064;9.290;2022-12-07T10:03:04;99150.00;;;1.97;100.00
43153;BME280;28756;49.064;9.290;2022-12-07T10:05:55;99141.34;;;2.01;100.00
43153;BME280;28756;49.064;9.290;2022-12-07T10:08:25;99141.28;;;2.06;100.00
43153;BME280;28756;49.064;9.290;2022-12-07T10:10:57;99135.22;;;2.09;100.00
43153;BME280;28756;49.064;9.290;2022-12-07T10:13:39;99136.78;;;2.16;100.00
43153;BME280;28756;49.064;9.290;2022-12-07T10:16:35;99136.56;;;2.28;100.00
43153;BME280;28756;49.064;9.290;2022-12-07T10:19:27;99135.75;;;2.26;100.00
43153;BME280;28756;49.064;9.290;2022-12-07T10:22:31;99138.91;;;2.39;100.00
43153;BME280;28756;49.064;9.290;2022-12-07T10:25:13;99128.47;;;2.47;100.00
43153;BME280;28756;49.064;9.290;2022-12-07T10:27:43;99121.50;;;2.53;100.00
43153;BME280;28756;49.064;9.290;2022-12-07T10:30:14;99119.09;;;2.46;100.00
43153;BME280;28756;49.064;9.290;2022-12-07T10:32:41;99117.56;;;2.37;100.00
43153;BME280;28756;49.064;9.290;2022-12-07T10:35:29;99109.88;;;2.37;100.00
43153;BME280;28756;49.064;9.290;2022-12-07T10:37:58;99104.69;;;2.39;100.00
43153;BME280;28756;49.064;9.290;2022-12-07T10:40:34;99108.13;;;2.39;100.00
43153;BME280;28756;49.064;9.290;2022-12-07T10:44:14;99114.53;;;2.60;100.00
43153;BME280;28756;49.064;9.290;2022-12-07T10:50:07;99115.34;;;2.61;100.00
43153;BME280;28756;49.064;9.290;2022-12-07T10:56:29;99101.44;;;2.71;100.00
43153;BME280;28756;49.064;9.290;2022-12-07T11:08:15;99098.09;;;2.67;100.00
43153;BME280;28756;49.064;9.290;2022-12-07T11:11:05;99099.97;;;2.61;100.00
43153;BME280;28756;49.064;9.290;2022-12-07T11:17:17;99090.94;;;2.43;100.00
43153;BME280;28756;49.064;9.290;2022-12-07T11:23:42;99095.94;;;2.49;100.00
43153;BME280;28756;49.064;9.290;2022-12-07T11:35:11;99080.16;;;2.25;100.00
43153;BME280;28756;49.064;9.290;2022-12-07T11:37:47;99084.38;;;2.28;100.00
43153;BME280;28756;49.064;9.290;2022-12-07T11:43:18;99076.88;;;2.20;100.00
43153;BME280;28756;49.064;9.290;2022-12-07T11:45:54;99072.47;;;2.25;100.00
43153;BME280;28756;49.064;9.290;2022-12-07T11:48:35;99079.16;;;2.32;100.00
43153;BME280;28756;49.064;9.290;2022-12-07T11:51:03;99075.63;;;2.38;100.00
43153;BME280;28756;49.064;9.290;2022-12-07T11:53:39;99068.06;;;2.32;100.00
43153;BME280;28756;49.064;9.290;2022-12-07T11:56:25;99070.56;;;2.35;100.00
43153;BME280;28756;49.064;9.290;2022-12-07T11:59:18;99067.16;;;2.33;100.00
43153;BME280;28756;49.064;9.290;2022-12-07T12:02:07;99062.84;;;2.36;100.00
43153;BME280;28756;49.064;9.290;2022-12-07T12:05:19;99059.44;;;2.34;100.00
43153;BME280;28756;49.064;9.290;2022-12-07T12:08:15;99057.63;;;2.40;100.00
43153;BME280;28756;49.064;9.290;2022-12-07T12:20:00;99049.88;;;2.41;100.00
43153;BME280;28756;49.064;9.290;2022-12-07T12:23:11;99045.75;;;2.34;100.00
43153;BME280;28756;49.064;9.290;2022-12-07T12:25:52;99035.59;;;2.29;100.00
43153;BME280;28756;49.064;9.290;2022-12-07T12:31:40;99038.09;;;2.32;100.00
43153;BME280;28756;49.064;9.290;2022-12-07T12:34:31;99045.84;;;2.31;100.00
43153;BME280;28756;49.064;9.290;2022-12-07T12:36:57;99034.81;;;2.27;100.00
43153;BME280;28756;49.064;9.290;2022-12-07T12:39:23;99040.13;;;2.18;100.00
43153;BME280;28756;49.064;9.290;2022-12-07T12:50:25;99028.78;;;2.28;100.00
43153;BME280;28756;49.064;9.290;2022-12-07T12:52:56;99028.72;;;2.31;100.00
43153;BME280;28756;49.064;9.290;2022-12-07T12:55:47;99027.88;;;2.31;100.00
43153;BME280;28756;49.064;9.290;2022-12-07T13:00:47;99022.56;;;2.39;100.00
43153;BME280;28756;49.064;9.290;2022-12-07T13:03:30;99021.66;;;2.41;100.00
43153;BME280;28756;49.064;9.290;2022-12-07T13:08:56;99012.09;;;2.48;100.00
43153;BME280;28756;49.064;9.290;2022-12-07T13:11:38;99013.69;;;2.53;100.00
43153;BME280;28756;49.064;9.290;2022-12-07T13:14:40;99000.03;;;2.51;100.00
43153;BME280;28756;49.064;9.290;2022-12-07T13:19:57;98999.25;;;2.48;100.00
43153;BME280;28756;49.064;9.290;2022-12-07T13:25:12;98993.97;;;2.56;100.00
43153;BME280;28756;49.064;9.290;2022-12-07T13:27:41;98990.53;;;2.55;100.00
43153;BME280;28756;49.064;9.290;2022-12-07T13:30:21;98994.75;;;2.58;100.00
43153;BME280;28756;49.064;9.290;2022-12-07T13:33:13;98986.28;;;2.54;100.00
43153;BME280;28756;49.064;9.290;2022-12-07T13:35:40;98990.56;;;2.53;100.00
43153;BME280;28756;49.064;9.290;2022-12-07T13:38:23;98990.63;;;2.52;100.00
43153;BME280;28756;49.064;9.290;2022-12-07T13:41:15;98980.31;;;2.53;100.00
43153;BME280;28756;49.064;9.290;2022-12-07T13:44:10;98983.78;;;2.51;100.00
43153;BME280;28756;49.064;9.290;2022-12-07T13:49:47;98985.69;;;2.43;100.00
43153;BME280;28756;49.064;9.290;2022-12-07T13:52:20;98977.13;;;2.42;100.00
43153;BME280;28756;49.064;9.290;2022-12-07T13:54:59;98984.78;;;2.45;100.00
43153;BME280;28756;49.064;9.290;2022-12-07T13:57:28;98978.78;;;2.45;100.00
43153;BME280;28756;49.064;9.290;2022-12-07T13:59:56;98979.59;;;2.47;100.00
43153;BME280;28756;49.064;9.290;2022-12-07T14:02:32;98981.34;;;2.46;100.00
43153;BME280;28756;49.064;9.290;2022-12-07T14:05:15;98980.47;;;2.46;100.00
43153;BME280;28756;49.064;9.290;2022-12-07T14:08:00;98981.34;;;2.46;100.00
43153;BME280;28756;49.064;9.290;2022-12-07T14:10:35;98982.16;;;2.47;100.00
43153;BME280;28756;49.064;9.290;2022-12-07T14:13:33;98981.50;;;2.39;100.00
43153;BME280;28756;49.064;9.290;2022-12-07T14:18:49;98989.19;;;2.40;100.00
43153;BME280;28756;49.064;9.290;2022-12-07T14:21:29;98999.50;;;2.37;100.00
43153;BME280;28756;49.064;9.290;2022-12-07T14:24:18;99005.56;;;2.34;100.00
43153;BME280;28756;49.064;9.290;2022-12-07T14:26:49;98997.09;;;2.31;100.00
43153;BME280;28756;49.064;9.290;2022-12-07T14:29:31;99008.09;;;2.36;100.00
43153;BME280;28756;49.064;9.290;2022-12-07T14:32:24;99003.97;;;2.29;100.00
43153;BME280;28756;49.064;9.290;2022-12-07T14:35:10;99003.13;;;2.28;100.00
43153;BME280;28756;49.064;9.290;2022-12-07T14:37:37;99003.19;;;2.25;100.00
43153;BME280;28756;49.064;9.290;2022-12-07T14:40:04;99003.25;;;2.22;100.00
43153;BME280;28756;49.064;9.290;2022-12-07T14:42:31;98993.84;;;2.21;100.00
43153;BME280;28756;49.064;9.290;2022-12-07T14:44:58;98993.91;;;2.19;100.00
43153;BME280;28756;49.064;9.290;2022-12-07T14:47:26;99000.81;;;2.16;100.00
43153;BME280;28756;49.064;9.290;2022-12-07T14:49:52;98998.34;;;2.13;100.00
43153;BME280;28756;49.064;9.290;2022-12-07T14:52:26;99006.09;;;2.10;100.00
43153;BME280;28756;49.064;9.290;2022-12-07T14:54:53;99001.94;;;2.04;100.00
43153;BME280;28756;49.064;9.290;2022-12-07T14:57:19;98997.63;;;2.06;100.00
43153;BME280;28756;49.064;9.290;2022-12-07T14:59:45;98998.44;;;2.07;100.00
43153;BME280;28756;49.064;9.290;2022-12-07T15:02:13;98998.44;;;2.07;100.00
43153;BME280;28756;49.064;9.290;2022-12-07T15:04:40;99000.22;;;2.04;100.00
43153;BME280;28756;49.064;9.290;2022-12-07T15:07:15;98992.53;;;2.04;100.00
43153;BME280;28756;49.064;9.290;2022-12-07T15:09:42;99007.09;;;2.02;100.00
43153;BME280;28756;49.064;9.290;2022-12-07T15:12:08;99005.34;;;2.03;100.00
43153;BME280;28756;49.064;9.290;2022-12-07T15:14:33;98999.34;;;2.04;100.00
43153;BME280;28756;49.064;9.290;2022-12-07T15:17:02;99002.78;;;2.03;100.00
43153;BME280;28756;49.064;9.290;2022-12-07T15:19:27;98995.97;;;2.03;100.00
43153;BME280;28756;49.064;9.290;2022-12-07T15:21:54;98989.19;;;1.99;100.00
43153;BME280;28756;49.064;9.290;2022-12-07T15:24:20;98992.56;;;2.01;100.00
43153;BME280;28756;49.064;9.290;2022-12-07T15:26:46;98990.88;;;2.00;100.00
43153;BME280;28756;49.064;9.290;2022-12-07T15:29:12;99001.19;;;1.99;100.00
43153;BME280;28756;49.064;9.290;2022-12-07T15:31:40;98997.81;;;1.97;100.00
43153;BME280;28756;49.064;9.290;2022-12-07T15:34:05;99003.03;;;1.92;100.00
43153;BME280;28756;49.064;9.290;2022-12-07T15:36:33;98998.91;;;1.85;100.00
43153;BME280;28756;49.064;9.290;2022-12-07T15:38:59;99007.47;;;1.84;100.00
43153;BME280;28756;49.064;9.290;2022-12-07T15:41:25;99001.47;;;1.85;100.00
43153;BME280;28756;49.064;9.290;2022-12-07T15:43:51;99002.31;;;1.85;100.00
43153;BME280;28756;49.064;9.290;2022-12-07T15:46:39;98999.81;;;1.82;100.00
43153;BME280;28756;49.064;9.290;2022-12-07T15:49:15;98998.94;;;1.82;100.00